createdAt,value
2019-05-28T00:02:04.273Z,14.95
2019-05-28T00:04:30.488Z,14.97
2019-05-28T00:06:57.905Z,14.94
2019-05-28T00:09:24.265Z,14.94
2019-05-28T00:11:50.502Z,14.97
2019-05-28T00:14:16.888Z,15.02
2019-05-28T00:16:43.047Z,15.04
2019-05-28T00:19:09.334Z,15.04
2019-05-28T00:21:35.477Z,15.02
2019-05-28T00:24:01.782Z,15.00
2019-05-28T00:26:28.156Z,14.97
2019-05-28T00:28:54.446Z,14.90
2019-05-28T00:31:21.094Z,14.89
2019-05-28T00:33:47.387Z,14.91
2019-05-28T00:36:13.581Z,14.92
2019-05-28T00:38:39.849Z,14.93
2019-05-28T00:41:05.984Z,14.88
2019-05-28T00:43:32.338Z,14.88
2019-05-28T00:45:58.521Z,14.89
2019-05-28T00:48:24.866Z,14.88
2019-05-28T00:50:51.376Z,14.88
2019-05-28T00:53:17.891Z,14.87
2019-05-28T00:55:44.843Z,14.86
2019-05-28T00:58:11.449Z,14.84
2019-05-28T01:00:48.220Z,14.86
2019-05-28T01:03:15.140Z,14.86
2019-05-28T01:05:41.575Z,14.77
2019-05-28T01:08:07.997Z,14.67
2019-05-28T01:10:34.308Z,14.62
2019-05-28T01:13:00.571Z,14.58
2019-05-28T01:15:26.703Z,14.57
2019-05-28T01:17:52.969Z,14.56
2019-05-28T01:20:19.399Z,14.49
2019-05-28T01:22:45.713Z,14.44
2019-05-28T01:25:12.127Z,14.43
2019-05-28T01:27:38.361Z,14.42
2019-05-28T01:30:05.623Z,14.36
2019-05-28T01:32:31.837Z,14.37
2019-05-28T01:34:59.151Z,14.36
2019-05-28T01:37:25.360Z,14.35
2019-05-28T01:39:51.678Z,14.33
2019-05-28T01:42:17.950Z,14.33
2019-05-28T01:44:44.273Z,14.25
2019-05-28T01:47:10.633Z,14.22
2019-05-28T01:49:36.960Z,14.20
2019-05-28T01:52:03.525Z,14.22
2019-05-28T01:54:29.821Z,14.23
2019-05-28T01:56:56.060Z,14.19
2019-05-28T01:59:22.446Z,14.17
2019-05-28T02:01:48.741Z,14.21
2019-05-28T02:04:15.154Z,14.22
2019-05-28T02:06:41.455Z,14.19
2019-05-28T02:09:07.832Z,14.18
2019-05-28T02:11:35.562Z,14.12
2019-05-28T02:14:02.839Z,14.07
2019-05-28T02:16:29.144Z,14.00
2019-05-28T02:18:55.465Z,13.95
2019-05-28T02:21:21.727Z,13.91
2019-05-28T02:23:47.957Z,13.91
2019-05-28T02:26:14.310Z,13.92
2019-05-28T02:28:40.745Z,13.91
2019-05-28T02:31:07.175Z,13.93
2019-05-28T02:33:33.553Z,13.97
2019-05-28T02:35:59.865Z,13.98
2019-05-28T02:38:26.104Z,13.93
2019-05-28T02:40:52.377Z,13.84
2019-05-28T02:43:18.617Z,13.83
2019-05-28T02:45:44.947Z,13.79
2019-05-28T02:48:11.323Z,13.77
2019-05-28T02:51:00.912Z,13.73
2019-05-28T02:53:29.041Z,13.65
2019-05-28T02:55:57.930Z,13.60
2019-05-28T02:58:32.377Z,13.56
2019-05-28T03:00:59.989Z,13.52
2019-05-28T03:03:29.664Z,13.47
2019-05-28T03:05:57.539Z,13.49
2019-05-28T03:08:26.395Z,13.48
2019-05-28T03:11:02.412Z,13.51
2019-05-28T03:13:21.070Z,13.52
2019-05-28T03:15:50.365Z,13.54
2019-05-28T03:18:18.007Z,13.57
2019-05-28T03:20:46.633Z,13.54
2019-05-28T03:23:14.962Z,13.47
2019-05-28T03:25:41.417Z,13.37
2019-05-28T03:28:07.614Z,13.35
2019-05-28T03:30:34.104Z,13.33
2019-05-28T03:33:00.502Z,13.30
2019-05-28T03:35:26.983Z,13.24
2019-05-28T03:37:53.255Z,13.23
2019-05-28T03:40:40.255Z,13.22
2019-05-28T03:43:06.364Z,13.18
2019-05-28T03:45:32.752Z,13.11
2019-05-28T03:47:58.977Z,13.10
2019-05-28T03:50:25.209Z,13.11
2019-05-28T03:52:51.679Z,13.09
2019-05-28T03:55:17.777Z,13.11
2019-05-28T03:57:44.050Z,13.16
2019-05-28T04:00:10.572Z,13.12
2019-05-28T04:02:36.854Z,13.06
2019-05-28T04:05:03.769Z,12.98
2019-05-28T04:07:30.053Z,12.94
2019-05-28T04:09:56.217Z,12.92
2019-05-28T04:12:23.681Z,12.88
2019-05-28T04:14:51.122Z,12.84
2019-05-28T04:17:17.386Z,12.84
2019-05-28T04:19:44.599Z,12.80
2019-05-28T04:22:10.894Z,12.83
2019-05-28T04:24:37.114Z,12.83
2019-05-28T04:27:03.567Z,12.85
2019-05-28T04:29:29.738Z,12.82
2019-05-28T04:31:55.930Z,12.82
2019-05-28T04:34:22.109Z,12.81
2019-05-28T04:36:48.302Z,12.83
2019-05-28T04:39:14.640Z,12.85
2019-05-28T04:41:41.806Z,12.91
2019-05-28T04:44:08.079Z,12.95
2019-05-28T04:46:34.291Z,12.94
2019-05-28T04:49:00.876Z,12.95
2019-05-28T04:51:27.096Z,12.93
2019-05-28T04:53:53.306Z,12.93
2019-05-28T04:56:19.505Z,12.93
2019-05-28T04:58:45.703Z,12.95
2019-05-28T05:01:13.081Z,12.92
2019-05-28T05:03:39.218Z,12.91
2019-05-28T05:06:05.703Z,12.91
2019-05-28T05:08:31.818Z,12.90
2019-05-28T05:10:58.108Z,12.88
2019-05-28T05:13:24.355Z,12.91
2019-05-28T05:15:50.727Z,12.92
2019-05-28T05:18:16.872Z,12.94
2019-05-28T05:20:43.239Z,12.97
2019-05-28T05:23:09.529Z,13.02
2019-05-28T05:25:35.893Z,13.03
2019-05-28T05:28:02.358Z,13.07
2019-05-28T05:30:28.764Z,13.02
2019-05-28T05:32:54.883Z,13.06
2019-05-28T05:35:21.356Z,13.11
2019-05-28T05:37:47.459Z,13.15
2019-05-28T05:40:15.749Z,13.19
2019-05-28T05:42:41.961Z,13.22
2019-05-28T05:45:08.349Z,13.24
2019-05-28T05:47:34.683Z,13.24
2019-05-28T05:50:01.038Z,13.24
2019-05-28T05:52:28.514Z,13.28
2019-05-28T05:54:54.666Z,13.30
2019-05-28T05:57:20.939Z,13.30
2019-05-28T05:59:47.113Z,13.32
2019-05-28T06:02:13.340Z,13.33
2019-05-28T06:04:39.511Z,13.31
2019-05-28T06:07:05.737Z,13.29
2019-05-28T06:09:31.922Z,13.27
2019-05-28T06:11:58.267Z,13.26
2019-05-28T06:14:25.713Z,13.28
2019-05-28T06:16:51.888Z,13.32
2019-05-28T06:19:18.184Z,13.34
2019-05-28T06:21:44.523Z,13.36
2019-05-28T06:24:10.714Z,13.41
2019-05-28T06:26:36.920Z,13.43
2019-05-28T06:29:03.339Z,13.38
2019-05-28T06:31:29.637Z,13.38
2019-05-28T06:33:57.433Z,13.37
2019-05-28T06:36:24.026Z,13.41
2019-05-28T06:38:50.133Z,13.48
2019-05-28T06:41:16.401Z,13.53
2019-05-28T06:43:42.516Z,13.59
2019-05-28T06:46:08.782Z,13.69
2019-05-28T06:48:34.903Z,13.78
2019-05-28T06:51:01.166Z,13.85
2019-05-28T06:53:27.497Z,13.82
2019-05-28T06:55:53.680Z,13.85
2019-05-28T06:58:37.563Z,13.88
2019-05-28T07:00:48.316Z,13.89
2019-05-28T07:03:14.478Z,13.87
2019-05-28T07:05:41.007Z,13.84
2019-05-28T07:08:07.231Z,13.79
2019-05-28T07:10:33.508Z,13.70
2019-05-28T07:12:59.705Z,13.59
2019-05-28T07:15:26.128Z,13.42
2019-05-28T07:17:52.297Z,13.27
2019-05-28T07:20:18.782Z,13.15
2019-05-28T07:22:45.046Z,13.08
2019-05-28T07:25:12.349Z,13.04
2019-05-28T07:27:38.560Z,12.99
2019-05-28T07:30:07.825Z,12.93
2019-05-28T07:32:34.157Z,12.89
2019-05-28T07:35:00.362Z,12.87
2019-05-28T07:37:26.548Z,12.86
2019-05-28T07:39:52.731Z,12.86
2019-05-28T07:42:31.862Z,12.87
2019-05-28T07:44:47.081Z,12.91
2019-05-28T07:47:13.426Z,12.94
2019-05-28T07:49:39.708Z,12.97
2019-05-28T07:52:06.023Z,12.99
2019-05-28T07:54:32.423Z,12.99
2019-05-28T07:56:58.900Z,12.97
2019-05-28T07:59:25.326Z,12.94
2019-05-28T08:01:51.720Z,12.93
2019-05-28T08:04:18.150Z,12.92
2019-05-28T08:06:54.216Z,12.91
2019-05-28T08:09:12.801Z,12.92
2019-05-28T08:11:39.125Z,12.95
2019-05-28T08:14:05.332Z,12.95
2019-05-28T08:16:31.616Z,12.97
2019-05-28T08:18:57.757Z,13.00
2019-05-28T08:21:24.343Z,13.03
2019-05-28T08:23:50.529Z,13.07
2019-05-28T08:26:16.815Z,13.10
2019-05-28T08:28:43.115Z,13.11
2019-05-28T08:31:15.270Z,13.16
2019-05-28T08:33:37.846Z,13.20
2019-05-28T08:36:04.873Z,13.27
2019-05-28T08:38:31.009Z,13.28
2019-05-28T08:40:57.384Z,13.30
2019-05-28T08:43:23.483Z,13.28
2019-05-28T08:45:49.797Z,13.26
2019-05-28T08:48:15.968Z,13.27
2019-05-28T08:50:42.441Z,13.29
2019-05-28T08:53:08.732Z,13.32
2019-05-28T08:55:34.877Z,13.35
2019-05-28T08:58:01.784Z,13.41
2019-05-28T09:00:40.409Z,13.47
2019-05-28T09:03:06.968Z,13.54
2019-05-28T09:05:33.171Z,13.60
2019-05-28T09:07:59.949Z,13.68
2019-05-28T09:10:26.575Z,13.75
2019-05-28T09:12:53.386Z,13.78
2019-05-28T09:15:20.277Z,13.82
2019-05-28T09:17:47.215Z,13.88
2019-05-28T09:20:14.470Z,13.95
2019-05-28T09:22:41.322Z,14.04
2019-05-28T09:25:08.247Z,14.15
2019-05-28T09:27:34.889Z,14.28
2019-05-28T09:30:02.100Z,14.37
2019-05-28T09:32:30.163Z,14.44
2019-05-28T09:34:57.058Z,14.45
2019-05-28T09:37:23.634Z,14.47
2019-05-28T09:39:50.377Z,14.48
2019-05-28T09:42:17.073Z,14.49
2019-05-28T09:44:43.967Z,14.52
2019-05-28T09:47:11.200Z,14.59
2019-05-28T09:49:38.282Z,14.66
2019-05-28T09:52:05.093Z,14.69
2019-05-28T09:54:31.509Z,14.67
2019-05-28T09:56:57.877Z,14.72
2019-05-28T09:59:24.428Z,14.80
2019-05-28T10:01:52.870Z,14.85
2019-05-28T10:04:19.127Z,14.87
2019-05-28T10:06:46.345Z,14.92
2019-05-28T10:09:12.746Z,14.93
2019-05-28T10:11:39.037Z,14.96
2019-05-28T10:14:05.281Z,15.04
2019-05-28T10:16:31.548Z,15.19
2019-05-28T10:18:57.713Z,15.35
2019-05-28T10:21:23.986Z,15.54
2019-05-28T10:23:50.126Z,15.81
2019-05-28T10:26:16.442Z,16.16
2019-05-28T10:28:42.734Z,16.50
2019-05-28T10:31:09.119Z,16.63
2019-05-28T10:33:35.447Z,16.74
2019-05-28T10:36:01.918Z,16.92
2019-05-28T10:38:28.040Z,17.23
2019-05-28T10:40:54.349Z,17.58
2019-05-28T10:43:20.753Z,18.02
2019-05-28T10:45:47.563Z,18.34
2019-05-28T10:48:13.764Z,18.48
2019-05-28T10:50:40.020Z,18.42
2019-05-28T10:53:06.331Z,18.37
2019-05-28T10:55:32.657Z,18.32
2019-05-28T10:57:58.856Z,18.29
2019-05-28T11:00:25.310Z,18.14
2019-05-28T11:02:51.454Z,18.05
2019-05-28T11:05:17.773Z,18.07
2019-05-28T11:07:44.091Z,18.08
2019-05-28T11:10:23.272Z,18.22
2019-05-28T11:12:38.996Z,18.23
2019-05-28T11:15:08.223Z,18.41
2019-05-28T11:17:34.630Z,18.62
2019-05-28T11:20:00.737Z,18.84
2019-05-28T11:22:27.033Z,19.10
2019-05-28T11:24:53.148Z,19.33
2019-05-28T11:27:19.580Z,19.40
2019-05-28T11:29:45.801Z,19.49
2019-05-28T11:32:12.256Z,19.60
2019-05-28T11:34:38.442Z,19.63
2019-05-28T11:37:09.570Z,19.67
2019-05-28T11:39:33.104Z,19.75
2019-05-28T11:41:59.502Z,19.72
2019-05-28T11:44:26.815Z,19.67
2019-05-28T11:46:53.166Z,19.64
2019-05-28T11:49:19.348Z,19.98
2019-05-28T11:51:45.829Z,20.67
2019-05-28T11:54:12.138Z,21.02
2019-05-28T11:56:38.456Z,21.74
2019-05-28T11:59:04.676Z,21.96
2019-05-28T12:01:34.969Z,22.03
2019-05-28T12:03:59.120Z,22.13
2019-05-28T12:06:25.385Z,22.64
2019-05-28T12:08:51.578Z,22.33
2019-05-28T12:11:17.800Z,21.92
2019-05-28T12:13:44.123Z,21.59
2019-05-28T12:16:10.446Z,21.57
2019-05-28T12:18:36.736Z,21.66
2019-05-28T12:21:03.233Z,22.21
2019-05-28T12:23:29.344Z,22.22
2019-05-28T12:25:55.597Z,22.08
2019-05-28T12:28:36.959Z,21.92
2019-05-28T12:30:49.882Z,21.54
2019-05-28T12:33:16.078Z,21.08
2019-05-28T12:35:43.098Z,20.74
2019-05-28T12:38:09.565Z,20.46
2019-05-28T12:40:47.324Z,20.19
2019-05-28T12:43:04.067Z,19.95
2019-05-28T12:45:35.357Z,19.74
2019-05-28T12:48:11.228Z,19.54
2019-05-28T12:50:27.163Z,19.34
2019-05-28T12:52:53.524Z,19.06
2019-05-28T12:55:20.112Z,18.96
2019-05-28T12:57:46.400Z,18.94
2019-05-28T13:00:13.459Z,18.95
2019-05-28T13:02:39.813Z,18.97
2019-05-28T13:05:11.806Z,18.94
2019-05-28T13:07:38.201Z,18.81
2019-05-28T13:10:07.379Z,18.80
2019-05-28T13:12:34.770Z,18.82
2019-05-28T13:15:01.227Z,18.67
2019-05-28T13:17:27.528Z,18.83
2019-05-28T13:19:53.655Z,19.06
2019-05-28T13:22:19.905Z,19.29
2019-05-28T13:24:46.018Z,19.71
2019-05-28T13:27:18.245Z,20.29
2019-05-28T13:29:40.364Z,20.87
2019-05-28T13:32:08.452Z,21.62
2019-05-28T13:34:34.619Z,22.49
2019-05-28T13:37:00.861Z,22.95
2019-05-28T13:39:27.265Z,22.84
2019-05-28T13:41:53.740Z,22.40
2019-05-28T13:44:20.250Z,21.93
2019-05-28T13:46:46.642Z,21.67
2019-05-28T13:49:13.169Z,21.49
2019-05-28T13:51:39.562Z,21.33
2019-05-28T13:54:05.873Z,21.28
2019-05-28T13:56:32.212Z,21.25
2019-05-28T13:58:58.425Z,21.19
2019-05-28T14:01:25.974Z,21.14
2019-05-28T14:03:52.364Z,20.95
2019-05-28T14:06:18.819Z,20.70
2019-05-28T14:08:47.572Z,20.48
2019-05-28T14:11:14.038Z,20.45
2019-05-28T14:13:40.401Z,20.42
2019-05-28T14:16:06.836Z,20.34
2019-05-28T14:18:33.242Z,20.20
2019-05-28T14:21:03.027Z,19.98
2019-05-28T14:23:30.413Z,19.64
2019-05-28T14:25:56.899Z,19.30
2019-05-28T14:28:23.257Z,18.93
2019-05-28T14:30:59.349Z,18.26
2019-05-28T14:33:17.803Z,17.68
2019-05-28T14:35:44.000Z,17.10
2019-05-28T14:38:10.913Z,16.42
2019-05-28T14:40:37.838Z,16.42
2019-05-28T14:43:04.456Z,16.21
2019-05-28T14:45:30.661Z,15.91
2019-05-28T14:47:56.821Z,15.75
2019-05-28T14:50:23.219Z,15.61
2019-05-28T14:52:49.432Z,15.41
2019-05-28T14:55:16.038Z,15.22
2019-05-28T14:57:42.873Z,14.92
2019-05-28T15:00:12.127Z,14.52
2019-05-28T15:02:38.499Z,14.20
2019-05-28T15:05:08.171Z,14.04
2019-05-28T15:07:34.523Z,13.94
2019-05-28T15:10:00.889Z,13.86
2019-05-28T15:12:27.164Z,13.84
2019-05-28T15:14:53.454Z,13.81
2019-05-28T15:17:19.719Z,13.79
2019-05-28T15:19:46.024Z,13.80
2019-05-28T15:22:12.450Z,13.79
2019-05-28T15:24:38.852Z,13.74
2019-05-28T15:27:05.224Z,13.77
2019-05-28T15:29:31.710Z,13.78
2019-05-28T15:31:58.110Z,13.80
2019-05-28T15:34:24.509Z,13.73
2019-05-28T15:36:51.324Z,13.70
2019-05-28T15:39:17.515Z,13.68
2019-05-28T15:41:44.017Z,13.63
2019-05-28T15:44:10.424Z,13.61
2019-05-28T15:46:37.011Z,13.62
2019-05-28T15:49:03.894Z,13.68
2019-05-28T15:51:30.083Z,13.73
2019-05-28T15:53:56.531Z,13.78
2019-05-28T15:56:22.782Z,13.78
2019-05-28T15:58:49.057Z,13.83
2019-05-28T16:01:15.608Z,13.86
2019-05-28T16:03:42.850Z,13.92
2019-05-28T16:06:09.124Z,13.96
2019-05-28T16:08:35.460Z,13.96
2019-05-28T16:11:01.803Z,13.99
2019-05-28T16:13:28.058Z,14.02
2019-05-28T16:15:54.318Z,14.04
2019-05-28T16:18:20.540Z,13.99
2019-05-28T16:20:46.839Z,13.92
2019-05-28T16:23:15.173Z,13.87
2019-05-28T16:25:41.778Z,13.87
2019-05-28T16:28:08.392Z,13.86
2019-05-28T16:30:34.683Z,13.82
2019-05-28T16:33:01.040Z,13.89
2019-05-28T16:35:30.328Z,13.92
2019-05-28T16:37:56.811Z,13.94
2019-05-28T16:40:23.668Z,13.95
2019-05-28T16:42:50.109Z,13.97
2019-05-28T16:45:16.920Z,14.04
2019-05-28T16:47:45.322Z,14.12
2019-05-28T16:50:13.561Z,14.16
2019-05-28T16:52:40.459Z,14.23
2019-05-28T16:55:08.909Z,14.32
2019-05-28T16:57:35.470Z,14.38
2019-05-28T17:00:04.595Z,14.44
2019-05-28T17:02:31.174Z,14.49
2019-05-28T17:04:57.509Z,14.51
2019-05-28T17:07:23.746Z,14.53
2019-05-28T17:09:50.187Z,14.56
2019-05-28T17:12:17.516Z,14.56
2019-05-28T17:14:43.993Z,14.59
2019-05-28T17:17:10.402Z,14.68
2019-05-28T17:19:36.666Z,14.70
2019-05-28T17:22:03.436Z,14.67
2019-05-28T17:24:30.206Z,14.60
2019-05-28T17:26:56.798Z,14.56
2019-05-28T17:29:23.252Z,14.50
2019-05-28T17:31:49.508Z,14.45
2019-05-28T17:34:15.677Z,14.38
2019-05-28T17:36:42.041Z,14.33
2019-05-28T17:39:08.644Z,14.27
2019-05-28T17:41:34.907Z,14.22
2019-05-28T17:44:02.534Z,14.23
2019-05-28T17:46:30.062Z,14.15
2019-05-28T17:48:56.466Z,14.07
2019-05-28T17:51:23.022Z,14.03
2019-05-28T17:53:49.261Z,13.98
2019-05-28T17:56:15.571Z,13.88
2019-05-28T17:58:41.782Z,13.83
2019-05-28T18:01:08.078Z,13.77
2019-05-28T18:03:35.402Z,13.70
2019-05-28T18:06:04.512Z,13.65
2019-05-28T18:08:31.115Z,13.62
2019-05-28T18:11:04.480Z,13.55
2019-05-28T18:13:28.525Z,13.58
2019-05-28T18:15:54.843Z,13.60
2019-05-28T18:18:21.233Z,13.59
2019-05-28T18:20:47.616Z,13.50
2019-05-28T18:23:14.139Z,13.42
2019-05-28T18:25:40.681Z,13.36
2019-05-28T18:28:07.089Z,13.28
2019-05-28T18:30:33.387Z,13.17
2019-05-28T18:32:59.686Z,13.05
2019-05-28T18:35:25.849Z,12.95
2019-05-28T18:37:52.347Z,12.89
2019-05-28T18:40:18.824Z,12.81
2019-05-28T18:42:45.090Z,12.74
2019-05-28T18:45:12.947Z,12.73
2019-05-28T18:47:39.836Z,12.71
2019-05-28T18:50:07.225Z,12.68
2019-05-28T18:52:33.499Z,12.61
2019-05-28T18:54:59.763Z,12.56
2019-05-28T18:57:25.884Z,12.55
2019-05-28T18:59:52.171Z,12.51
2019-05-28T19:02:19.516Z,12.48
2019-05-28T19:04:45.846Z,12.44
2019-05-28T19:07:12.245Z,12.40
2019-05-28T19:09:38.717Z,12.37
2019-05-28T19:12:05.118Z,12.37
2019-05-28T19:14:31.468Z,12.37
2019-05-28T19:16:57.757Z,12.35
2019-05-28T19:19:23.880Z,12.33
2019-05-28T19:21:50.311Z,12.30
2019-05-28T19:24:16.887Z,12.29
2019-05-28T19:26:43.285Z,12.22
2019-05-28T19:29:09.586Z,12.19
2019-05-28T19:31:36.136Z,12.15
2019-05-28T19:34:02.846Z,12.18
2019-05-28T19:36:29.760Z,12.15
2019-05-28T19:38:57.028Z,12.12
2019-05-28T19:41:23.259Z,12.09
2019-05-28T19:43:49.679Z,12.08
2019-05-28T19:46:15.963Z,12.07
2019-05-28T19:48:42.539Z,12.02
2019-05-28T19:51:08.688Z,11.97
2019-05-28T19:53:35.255Z,11.93
2019-05-28T19:56:01.474Z,11.92
2019-05-28T19:58:27.865Z,11.91
2019-05-28T20:00:54.130Z,11.88
2019-05-28T20:03:20.465Z,11.88
2019-05-28T20:05:47.790Z,11.85
2019-05-28T20:08:14.189Z,11.83
2019-05-28T20:10:40.540Z,11.80
2019-05-28T20:13:11.242Z,11.73
2019-05-28T20:15:38.078Z,11.74
2019-05-28T20:18:04.665Z,11.72
2019-05-28T20:20:30.781Z,11.70
2019-05-28T20:22:57.022Z,11.70
2019-05-28T20:25:23.209Z,11.72
2019-05-28T20:27:49.751Z,11.68
2019-05-28T20:30:16.419Z,11.66
2019-05-28T20:32:42.632Z,11.63
2019-05-28T20:35:09.637Z,11.63
2019-05-28T20:37:36.130Z,11.62
2019-05-28T20:40:03.971Z,11.64
2019-05-28T20:42:30.315Z,11.60
2019-05-28T20:44:56.806Z,11.61
2019-05-28T20:47:23.057Z,11.62
2019-05-28T20:49:49.273Z,11.58
2019-05-28T20:52:15.562Z,11.54
2019-05-28T20:54:42.152Z,11.52
2019-05-28T20:57:08.342Z,11.57
2019-05-28T20:59:34.664Z,11.55
2019-05-28T21:02:00.849Z,11.57
2019-05-28T21:04:27.329Z,11.56
2019-05-28T21:06:54.596Z,11.61
2019-05-28T21:09:20.816Z,11.62
2019-05-28T21:11:48.242Z,11.59
2019-05-28T21:14:14.620Z,11.58
2019-05-28T21:16:40.894Z,11.59
2019-05-28T21:19:07.052Z,11.60
2019-05-28T21:21:33.291Z,11.58
2019-05-28T21:23:59.995Z,11.55
2019-05-28T21:26:26.439Z,11.48
2019-05-28T21:28:52.655Z,11.47
2019-05-28T21:31:18.929Z,11.47
2019-05-28T21:33:45.050Z,11.43
2019-05-28T21:36:11.326Z,11.40
2019-05-28T21:38:37.419Z,11.40
2019-05-28T21:41:03.793Z,11.35
2019-05-28T21:43:29.927Z,11.35
2019-05-28T21:45:56.220Z,11.32
2019-05-28T21:48:22.434Z,11.32
2019-05-28T21:50:48.728Z,11.33
2019-05-28T21:53:14.907Z,11.35
2019-05-28T21:55:41.230Z,11.33
2019-05-28T21:58:07.437Z,11.34
2019-05-28T22:00:48.242Z,11.36
2019-05-28T22:03:15.393Z,11.36
2019-05-28T22:05:41.671Z,11.41
2019-05-28T22:08:07.889Z,11.41
2019-05-28T22:10:34.088Z,11.36
2019-05-28T22:13:16.430Z,11.33
2019-05-28T22:15:28.551Z,11.28
2019-05-28T22:17:54.653Z,11.28
2019-05-28T22:20:20.918Z,11.30
2019-05-28T22:22:47.194Z,11.27
2019-05-28T22:25:13.674Z,11.28
2019-05-28T22:27:40.144Z,11.27
2019-05-28T22:30:07.804Z,11.31
2019-05-28T22:32:34.056Z,11.34
2019-05-28T22:35:00.175Z,11.36
2019-05-28T22:37:26.474Z,11.38
2019-05-28T22:39:52.591Z,11.38
2019-05-28T22:42:19.970Z,11.37
2019-05-28T22:44:46.063Z,11.34
2019-05-28T22:47:12.464Z,11.30
2019-05-28T22:49:38.658Z,11.23
2019-05-28T22:52:06.058Z,11.23
2019-05-28T22:54:32.419Z,11.23
2019-05-28T22:56:58.566Z,11.23
2019-05-28T22:59:24.958Z,11.21
2019-05-28T23:01:51.054Z,11.23
2019-05-28T23:04:17.348Z,11.19
2019-05-28T23:06:43.508Z,11.17
2019-05-28T23:09:09.947Z,11.12
2019-05-28T23:11:36.076Z,11.12
2019-05-28T23:14:02.602Z,11.06
2019-05-28T23:16:28.702Z,10.96
2019-05-28T23:18:54.968Z,10.90
2019-05-28T23:21:21.268Z,10.87
2019-05-28T23:23:47.701Z,10.83
2019-05-28T23:26:13.982Z,10.83
2019-05-28T23:28:40.271Z,10.80
2019-05-28T23:31:06.532Z,10.77
2019-05-28T23:33:32.911Z,10.75
2019-05-28T23:35:59.271Z,10.77
2019-05-28T23:38:25.738Z,10.75
2019-05-28T23:40:52.074Z,10.70
2019-05-28T23:43:18.520Z,10.67
2019-05-28T23:45:44.816Z,10.63
2019-05-28T23:48:14.213Z,10.67
2019-05-28T23:50:39.358Z,10.62
2019-05-28T23:53:06.026Z,10.63
2019-05-28T23:55:32.246Z,10.61
2019-05-28T23:57:58.505Z,10.58
